SPPAC EPPB-EPRG
Flight info
| Callsign | SPPAC |
|---|---|
| Flight time | 0h 58m |
| Altitude | 8000 |
| Route | DIPKI DCT MAPIK DCT ORSOX |
| Aircraft | P750/L-SDGRY/S |
Departure
| Time | 2026-04-25 15:52 |
|---|---|
| Airport | Poznań-Bednary Airfield (EPPB) |
Arrival
| Time | 2026-04-25 16:51 |
|---|---|
| Airport | Rybnik-Gotartowice Glider Field (EPRG) |
| Time | Latitude | Longitude | Altitude | Speed | Heading |
|---|---|---|---|---|---|
| 2026-04-25 15:38 | 52.53489 | 17.20273 | 371 ft | 0 kts | 189° |
| 2026-04-25 15:48 | 52.53490 | 17.20273 | 376 ft | 3 kts | 189° |
| 2026-04-25 15:48 | 52.53511 | 17.20286 | 369 ft | 2 kts | 259° |
| 2026-04-25 15:48 | 52.53528 | 17.20257 | 374 ft | 7 kts | 310° |
| 2026-04-25 15:48 | 52.53594 | 17.20197 | 362 ft | 15 kts | 17° |
| 2026-04-25 15:49 | 52.53708 | 17.20255 | 362 ft | 18 kts | 17° |
| 2026-04-25 15:49 | 52.53794 | 17.20327 | 364 ft | 8 kts | 108° |
| 2026-04-25 15:49 | 52.53790 | 17.20354 | 362 ft | 0 kts | 105° |
| 2026-04-25 15:52 | 52.53714 | 17.20784 | 364 ft | 94 kts | 107° |
| 2026-04-25 15:52 | 52.53480 | 17.22088 | 622 ft | 125 kts | 107° |
| 2026-04-25 15:52 | 52.53237 | 17.23466 | 1089 ft | 129 kts | 108° |
| 2026-04-25 15:52 | 52.52922 | 17.24939 | 1543 ft | 138 kts | 129° |
| 2026-04-25 15:53 | 52.52238 | 17.25874 | 1986 ft | 124 kts | 164° |
| 2026-04-25 15:53 | 52.51475 | 17.26524 | 2382 ft | 123 kts | 164° |
| 2026-04-25 15:53 | 52.50699 | 17.27170 | 2729 ft | 127 kts | 165° |
| 2026-04-25 15:53 | 52.49897 | 17.27787 | 3045 ft | 130 kts | 166° |
| 2026-04-25 15:54 | 52.49068 | 17.28419 | 3323 ft | 133 kts | 167° |
| 2026-04-25 15:54 | 52.48208 | 17.29015 | 3586 ft | 136 kts | 169° |
| 2026-04-25 15:54 | 52.47309 | 17.29571 | 3838 ft | 140 kts | 172° |
| 2026-04-25 15:54 | 52.46376 | 17.30079 | 4022 ft | 148 kts | 171° |
| 2026-04-25 15:55 | 52.45396 | 17.30677 | 4238 ft | 150 kts | 171° |
| 2026-04-25 15:55 | 52.44419 | 17.31232 | 4544 ft | 147 kts | 172° |
| 2026-04-25 15:55 | 52.43460 | 17.31783 | 4856 ft | 144 kts | 172° |
| 2026-04-25 15:55 | 52.42520 | 17.32329 | 5167 ft | 143 kts | 172° |
| 2026-04-25 15:56 | 52.41597 | 17.32890 | 5489 ft | 141 kts | 172° |
| 2026-04-25 15:56 | 52.40688 | 17.33467 | 5809 ft | 140 kts | 172° |
| 2026-04-25 15:56 | 52.39782 | 17.34066 | 6142 ft | 140 kts | 172° |
| 2026-04-25 15:56 | 52.38879 | 17.34679 | 6460 ft | 140 kts | 172° |
| 2026-04-25 15:57 | 52.37981 | 17.35297 | 6779 ft | 140 kts | 172° |
| 2026-04-25 15:57 | 52.37093 | 17.35919 | 7085 ft | 138 kts | 172° |
| 2026-04-25 15:57 | 52.36214 | 17.36550 | 7399 ft | 137 kts | 172° |
| 2026-04-25 15:57 | 52.35346 | 17.37184 | 7702 ft | 138 kts | 172° |
| 2026-04-25 15:58 | 52.34448 | 17.37825 | 7857 ft | 150 kts | 172° |
| 2026-04-25 15:58 | 52.33431 | 17.38504 | 7871 ft | 165 kts | 172° |
| 2026-04-25 15:58 | 52.32335 | 17.39202 | 7867 ft | 173 kts | 172° |
| 2026-04-25 15:58 | 52.31182 | 17.39918 | 7859 ft | 177 kts | 172° |
| 2026-04-25 15:59 | 52.30030 | 17.40629 | 7860 ft | 178 kts | 172° |
| 2026-04-25 15:59 | 52.28885 | 17.41331 | 7859 ft | 178 kts | 172° |
| 2026-04-25 15:59 | 52.27719 | 17.42044 | 7860 ft | 179 kts | 172° |
| 2026-04-25 15:59 | 52.26556 | 17.42740 | 7860 ft | 178 kts | 173° |
| 2026-04-25 16:00 | 52.25387 | 17.43395 | 7856 ft | 178 kts | 174° |
| 2026-04-25 16:00 | 52.24991 | 17.43616 | 7861 ft | 178 kts | 174° |
| 2026-04-25 16:00 | 52.23047 | 17.44699 | 7863 ft | 178 kts | 174° |
| 2026-04-25 16:00 | 52.21872 | 17.45351 | 7863 ft | 179 kts | 174° |
| 2026-04-25 16:01 | 52.20692 | 17.46004 | 7861 ft | 179 kts | 174° |
| 2026-04-25 16:01 | 52.19511 | 17.46640 | 7860 ft | 178 kts | 175° |
| 2026-04-25 16:01 | 52.18326 | 17.47227 | 7862 ft | 178 kts | 176° |
| 2026-04-25 16:01 | 52.17138 | 17.47804 | 7861 ft | 178 kts | 176° |
| 2026-04-25 16:02 | 52.15952 | 17.48377 | 7861 ft | 178 kts | 176° |
| 2026-04-25 16:02 | 52.14769 | 17.48952 | 7861 ft | 177 kts | 176° |
| 2026-04-25 16:02 | 52.13585 | 17.49527 | 7868 ft | 178 kts | 176° |
| 2026-04-25 16:02 | 52.12400 | 17.50100 | 7868 ft | 177 kts | 176° |
| 2026-04-25 16:03 | 52.11216 | 17.50675 | 7868 ft | 177 kts | 176° |
| 2026-04-25 16:03 | 52.10034 | 17.51247 | 7868 ft | 178 kts | 176° |
| 2026-04-25 16:03 | 52.08849 | 17.51821 | 7868 ft | 178 kts | 176° |
| 2026-04-25 16:03 | 52.07664 | 17.52393 | 7868 ft | 178 kts | 176° |
| 2026-04-25 16:04 | 52.06480 | 17.52966 | 7859 ft | 177 kts | 176° |
| 2026-04-25 16:04 | 52.05299 | 17.53536 | 7858 ft | 177 kts | 176° |
| 2026-04-25 16:04 | 52.04122 | 17.54104 | 7856 ft | 176 kts | 176° |
| 2026-04-25 16:04 | 52.02946 | 17.54672 | 7864 ft | 176 kts | 176° |
| 2026-04-25 16:05 | 52.01773 | 17.55238 | 7865 ft | 176 kts | 176° |
| 2026-04-25 16:05 | 52.00602 | 17.55801 | 7866 ft | 175 kts | 176° |
| 2026-04-25 16:05 | 51.98275 | 17.56922 | 7864 ft | 175 kts | 176° |
| 2026-04-25 16:06 | 51.97102 | 17.57487 | 7865 ft | 175 kts | 176° |
| 2026-04-25 16:06 | 51.95927 | 17.58051 | 7866 ft | 176 kts | 176° |
| 2026-04-25 16:06 | 51.94753 | 17.58617 | 7864 ft | 175 kts | 176° |
| 2026-04-25 16:06 | 51.93584 | 17.59178 | 7865 ft | 175 kts | 176° |
| 2026-04-25 16:07 | 51.92432 | 17.59731 | 7855 ft | 175 kts | 176° |
| 2026-04-25 16:07 | 51.92037 | 17.59922 | 7862 ft | 175 kts | 176° |
| 2026-04-25 16:07 | 51.90090 | 17.60855 | 7861 ft | 176 kts | 176° |
| 2026-04-25 16:07 | 51.88916 | 17.61416 | 7858 ft | 176 kts | 176° |
| 2026-04-25 16:08 | 51.87739 | 17.61981 | 7859 ft | 177 kts | 176° |
| 2026-04-25 16:08 | 51.86560 | 17.62546 | 7859 ft | 177 kts | 176° |
| 2026-04-25 16:08 | 51.85381 | 17.63110 | 7860 ft | 177 kts | 176° |
| 2026-04-25 16:08 | 51.84199 | 17.63676 | 7860 ft | 177 kts | 176° |
| 2026-04-25 16:09 | 51.83019 | 17.64238 | 7859 ft | 177 kts | 176° |
| 2026-04-25 16:09 | 51.81839 | 17.64804 | 7864 ft | 177 kts | 176° |
| 2026-04-25 16:09 | 51.80655 | 17.65370 | 7864 ft | 177 kts | 176° |
| 2026-04-25 16:09 | 51.79475 | 17.65931 | 7863 ft | 177 kts | 176° |
| 2026-04-25 16:10 | 51.78295 | 17.66495 | 7864 ft | 177 kts | 176° |
| 2026-04-25 16:10 | 51.77113 | 17.67057 | 7863 ft | 177 kts | 176° |
| 2026-04-25 16:10 | 51.75929 | 17.67622 | 7863 ft | 177 kts | 176° |
| 2026-04-25 16:10 | 51.74748 | 17.68186 | 7863 ft | 177 kts | 176° |
| 2026-04-25 16:11 | 51.73583 | 17.68740 | 7860 ft | 177 kts | 176° |
| 2026-04-25 16:11 | 51.72403 | 17.69302 | 7861 ft | 177 kts | 176° |
| 2026-04-25 16:11 | 51.71224 | 17.69862 | 7867 ft | 177 kts | 176° |
| 2026-04-25 16:11 | 51.70044 | 17.70422 | 7871 ft | 176 kts | 176° |
| 2026-04-25 16:12 | 51.68868 | 17.70981 | 7871 ft | 176 kts | 176° |
| 2026-04-25 16:12 | 51.67690 | 17.71539 | 7870 ft | 176 kts | 176° |
| 2026-04-25 16:12 | 51.66511 | 17.72099 | 7869 ft | 176 kts | 176° |
| 2026-04-25 16:12 | 51.66130 | 17.72280 | 7870 ft | 176 kts | 176° |
| 2026-04-25 16:13 | 51.64163 | 17.73212 | 7856 ft | 176 kts | 176° |
| 2026-04-25 16:13 | 51.62987 | 17.73770 | 7864 ft | 176 kts | 176° |
| 2026-04-25 16:13 | 51.61823 | 17.74320 | 7860 ft | 176 kts | 176° |
| 2026-04-25 16:13 | 51.60647 | 17.74878 | 7867 ft | 176 kts | 176° |
| 2026-04-25 16:14 | 51.59472 | 17.75432 | 7867 ft | 176 kts | 176° |
| 2026-04-25 16:14 | 51.58294 | 17.75990 | 7869 ft | 176 kts | 176° |
| 2026-04-25 16:14 | 51.57120 | 17.76544 | 7868 ft | 176 kts | 176° |
| 2026-04-25 16:14 | 51.55947 | 17.77098 | 7870 ft | 175 kts | 176° |
| 2026-04-25 16:15 | 51.54776 | 17.77650 | 7869 ft | 175 kts | 176° |
| 2026-04-25 16:15 | 51.53608 | 17.78201 | 7865 ft | 175 kts | 176° |
| 2026-04-25 16:15 | 51.52436 | 17.78754 | 7866 ft | 175 kts | 176° |
| 2026-04-25 16:15 | 51.51265 | 17.79304 | 7865 ft | 176 kts | 176° |
| 2026-04-25 16:16 | 51.50093 | 17.79858 | 7870 ft | 176 kts | 176° |
| 2026-04-25 16:16 | 51.48920 | 17.80408 | 7867 ft | 176 kts | 176° |
| 2026-04-25 16:16 | 51.48143 | 17.80776 | 7863 ft | 176 kts | 176° |
| 2026-04-25 16:16 | 51.46971 | 17.81326 | 7872 ft | 176 kts | 176° |
| 2026-04-25 16:17 | 51.45417 | 17.82056 | 7872 ft | 175 kts | 176° |
| 2026-04-25 16:17 | 51.44245 | 17.82607 | 7870 ft | 175 kts | 176° |
| 2026-04-25 16:17 | 51.43454 | 17.82978 | 7872 ft | 175 kts | 176° |
| 2026-04-25 16:17 | 51.42281 | 17.83528 | 7873 ft | 176 kts | 176° |
| 2026-04-25 16:18 | 51.41106 | 17.84079 | 7869 ft | 176 kts | 176° |
| 2026-04-25 16:18 | 51.40327 | 17.84444 | 7873 ft | 176 kts | 176° |
| 2026-04-25 16:18 | 51.38750 | 17.85183 | 7874 ft | 176 kts | 176° |
| 2026-04-25 16:18 | 51.37576 | 17.85733 | 7876 ft | 176 kts | 176° |
| 2026-04-25 16:19 | 51.36414 | 17.86277 | 7875 ft | 176 kts | 176° |
| 2026-04-25 16:19 | 51.35237 | 17.86827 | 7872 ft | 176 kts | 176° |
| 2026-04-25 16:19 | 51.34058 | 17.87377 | 7870 ft | 176 kts | 176° |
| 2026-04-25 16:20 | 51.31715 | 17.88472 | 7868 ft | 175 kts | 175° |
| 2026-04-25 16:20 | 51.30547 | 17.89018 | 7869 ft | 175 kts | 175° |
| 2026-04-25 16:20 | 51.28208 | 17.90107 | 7873 ft | 175 kts | 176° |
| 2026-04-25 16:21 | 51.27036 | 17.90653 | 7874 ft | 176 kts | 175° |
| 2026-04-25 16:21 | 51.25862 | 17.91201 | 7878 ft | 176 kts | 175° |
| 2026-04-25 16:21 | 51.24689 | 17.91747 | 7878 ft | 175 kts | 175° |
| 2026-04-25 16:21 | 51.23518 | 17.92292 | 7877 ft | 175 kts | 175° |
| 2026-04-25 16:22 | 51.22363 | 17.92829 | 7876 ft | 175 kts | 175° |
| 2026-04-25 16:22 | 51.21193 | 17.93372 | 7877 ft | 175 kts | 175° |
| 2026-04-25 16:22 | 51.20025 | 17.93916 | 7875 ft | 175 kts | 175° |
| 2026-04-25 16:22 | 51.18857 | 17.94457 | 7875 ft | 175 kts | 175° |
| 2026-04-25 16:23 | 51.17692 | 17.94998 | 7876 ft | 174 kts | 175° |
| 2026-04-25 16:23 | 51.16529 | 17.95538 | 7875 ft | 174 kts | 175° |
| 2026-04-25 16:23 | 51.15359 | 17.96078 | 7876 ft | 175 kts | 175° |
| 2026-04-25 16:23 | 51.14188 | 17.96621 | 7878 ft | 176 kts | 175° |
| 2026-04-25 16:24 | 51.13012 | 17.97166 | 7865 ft | 175 kts | 175° |
| 2026-04-25 16:24 | 51.11850 | 17.97706 | 7878 ft | 174 kts | 175° |
| 2026-04-25 16:24 | 51.10688 | 17.98241 | 7877 ft | 173 kts | 175° |
| 2026-04-25 16:24 | 51.09530 | 17.98777 | 7876 ft | 174 kts | 175° |
| 2026-04-25 16:25 | 51.08387 | 17.99305 | 7876 ft | 173 kts | 175° |
| 2026-04-25 16:25 | 51.07604 | 17.99666 | 7882 ft | 173 kts | 175° |
| 2026-04-25 16:25 | 51.06068 | 18.00375 | 7882 ft | 173 kts | 175° |
| 2026-04-25 16:25 | 51.04909 | 18.00910 | 7882 ft | 173 kts | 175° |
| 2026-04-25 16:26 | 51.03751 | 18.01444 | 7880 ft | 173 kts | 175° |
| 2026-04-25 16:26 | 51.02591 | 18.01979 | 7880 ft | 173 kts | 175° |
| 2026-04-25 16:26 | 51.01433 | 18.02512 | 7880 ft | 173 kts | 175° |
| 2026-04-25 16:26 | 51.00279 | 18.03043 | 7879 ft | 173 kts | 175° |
| 2026-04-25 16:27 | 50.99119 | 18.03577 | 7876 ft | 173 kts | 175° |
| 2026-04-25 16:27 | 50.97962 | 18.04109 | 7876 ft | 173 kts | 175° |
| 2026-04-25 16:27 | 50.96800 | 18.04642 | 7882 ft | 174 kts | 176° |
| 2026-04-25 16:27 | 50.95655 | 18.05169 | 7882 ft | 174 kts | 176° |
| 2026-04-25 16:28 | 50.94495 | 18.05701 | 7880 ft | 173 kts | 176° |
| 2026-04-25 16:28 | 50.93335 | 18.06233 | 7880 ft | 173 kts | 176° |
| 2026-04-25 16:28 | 50.92174 | 18.06767 | 7880 ft | 173 kts | 175° |
| 2026-04-25 16:28 | 50.91016 | 18.07297 | 7880 ft | 173 kts | 175° |
| 2026-04-25 16:29 | 50.89858 | 18.07829 | 7880 ft | 173 kts | 175° |
| 2026-04-25 16:29 | 50.88698 | 18.08359 | 7880 ft | 173 kts | 175° |
| 2026-04-25 16:29 | 50.87538 | 18.08890 | 7881 ft | 173 kts | 176° |
| 2026-04-25 16:29 | 50.86384 | 18.09420 | 7885 ft | 171 kts | 174° |
| 2026-04-25 16:30 | 50.85259 | 18.09933 | 7885 ft | 170 kts | 175° |
| 2026-04-25 16:30 | 50.84138 | 18.10444 | 7886 ft | 170 kts | 175° |
| 2026-04-25 16:30 | 50.82981 | 18.10974 | 7890 ft | 170 kts | 175° |
| 2026-04-25 16:30 | 50.81843 | 18.11493 | 7898 ft | 171 kts | 175° |
| 2026-04-25 16:31 | 50.80696 | 18.12015 | 7893 ft | 171 kts | 174° |
| 2026-04-25 16:31 | 50.79552 | 18.12538 | 7894 ft | 172 kts | 175° |
| 2026-04-25 16:31 | 50.78403 | 18.13063 | 7899 ft | 172 kts | 174° |
| 2026-04-25 16:31 | 50.77255 | 18.13585 | 7900 ft | 172 kts | 175° |
| 2026-04-25 16:32 | 50.76107 | 18.14108 | 7903 ft | 172 kts | 174° |
| 2026-04-25 16:32 | 50.74955 | 18.14633 | 7902 ft | 172 kts | 174° |
| 2026-04-25 16:32 | 50.73806 | 18.15155 | 7902 ft | 172 kts | 174° |
| 2026-04-25 16:32 | 50.72653 | 18.15679 | 7900 ft | 172 kts | 174° |
| 2026-04-25 16:33 | 50.71501 | 18.16202 | 7897 ft | 172 kts | 175° |
| 2026-04-25 16:33 | 50.70349 | 18.16726 | 7896 ft | 172 kts | 174° |
| 2026-04-25 16:33 | 50.69198 | 18.17248 | 7894 ft | 172 kts | 174° |
| 2026-04-25 16:33 | 50.68063 | 18.17763 | 7894 ft | 172 kts | 174° |
| 2026-04-25 16:34 | 50.66910 | 18.18287 | 7895 ft | 172 kts | 174° |
| 2026-04-25 16:34 | 50.65756 | 18.18810 | 7906 ft | 172 kts | 174° |
| 2026-04-25 16:34 | 50.64604 | 18.19332 | 7902 ft | 172 kts | 175° |
| 2026-04-25 16:34 | 50.63451 | 18.19854 | 7898 ft | 172 kts | 174° |
| 2026-04-25 16:35 | 50.62301 | 18.20374 | 7904 ft | 172 kts | 175° |
| 2026-04-25 16:35 | 50.61150 | 18.20895 | 7901 ft | 172 kts | 175° |
| 2026-04-25 16:35 | 50.60001 | 18.21416 | 7892 ft | 172 kts | 174° |
| 2026-04-25 16:35 | 50.58846 | 18.21935 | 7892 ft | 172 kts | 174° |
| 2026-04-25 16:36 | 50.57692 | 18.22458 | 7893 ft | 172 kts | 174° |
| 2026-04-25 16:36 | 50.57318 | 18.22627 | 7892 ft | 172 kts | 174° |
| 2026-04-25 16:36 | 50.55385 | 18.23499 | 7897 ft | 173 kts | 174° |
| 2026-04-25 16:36 | 50.54245 | 18.24011 | 7898 ft | 173 kts | 174° |
| 2026-04-25 16:37 | 50.53086 | 18.24540 | 7896 ft | 174 kts | 172° |
| 2026-04-25 16:37 | 50.52031 | 18.25546 | 7895 ft | 183 kts | 142° |
| 2026-04-25 16:37 | 50.51096 | 18.26903 | 7898 ft | 183 kts | 144° |
| 2026-04-25 16:37 | 50.50145 | 18.28230 | 7901 ft | 183 kts | 143° |
| 2026-04-25 16:38 | 50.49196 | 18.29564 | 7900 ft | 183 kts | 143° |
| 2026-04-25 16:38 | 50.48246 | 18.30905 | 7899 ft | 183 kts | 143° |
| 2026-04-25 16:38 | 50.47296 | 18.32244 | 7900 ft | 183 kts | 143° |
| 2026-04-25 16:38 | 50.46345 | 18.33583 | 7901 ft | 183 kts | 143° |
| 2026-04-25 16:39 | 50.45394 | 18.34919 | 7904 ft | 184 kts | 143° |
| 2026-04-25 16:39 | 50.44443 | 18.36258 | 7904 ft | 184 kts | 143° |
| 2026-04-25 16:39 | 50.43502 | 18.37580 | 7907 ft | 184 kts | 143° |
| 2026-04-25 16:39 | 50.42548 | 18.38918 | 7907 ft | 184 kts | 143° |
| 2026-04-25 16:40 | 50.41597 | 18.40254 | 7906 ft | 183 kts | 143° |
| 2026-04-25 16:40 | 50.40647 | 18.41587 | 7907 ft | 183 kts | 143° |
| 2026-04-25 16:40 | 50.39698 | 18.42916 | 7905 ft | 183 kts | 143° |
| 2026-04-25 16:40 | 50.38754 | 18.44239 | 7906 ft | 182 kts | 143° |
| 2026-04-25 16:41 | 50.37803 | 18.45571 | 7905 ft | 182 kts | 144° |
| 2026-04-25 16:41 | 50.37174 | 18.46449 | 7906 ft | 183 kts | 143° |
| 2026-04-25 16:41 | 50.34959 | 18.49551 | 7905 ft | 183 kts | 143° |
| 2026-04-25 16:42 | 50.34010 | 18.50875 | 7902 ft | 183 kts | 144° |
| 2026-04-25 16:42 | 50.33064 | 18.52198 | 7902 ft | 182 kts | 143° |
| 2026-04-25 16:42 | 50.32092 | 18.53465 | 7902 ft | 179 kts | 155° |
| 2026-04-25 16:42 | 50.30970 | 18.54090 | 7904 ft | 167 kts | 177° |
| 2026-04-25 16:43 | 50.29837 | 18.54504 | 7905 ft | 167 kts | 175° |
| 2026-04-25 16:43 | 50.28705 | 18.54926 | 7906 ft | 167 kts | 176° |
| 2026-04-25 16:43 | 50.27571 | 18.55343 | 7906 ft | 167 kts | 176° |
| 2026-04-25 16:43 | 50.26440 | 18.55758 | 7906 ft | 167 kts | 176° |
| 2026-04-25 16:44 | 50.25321 | 18.56168 | 7905 ft | 167 kts | 176° |
| 2026-04-25 16:44 | 50.24185 | 18.56587 | 7904 ft | 163 kts | 176° |
| 2026-04-25 16:44 | 50.23196 | 18.56966 | 7852 ft | 131 kts | 178° |
| 2026-04-25 16:44 | 50.22334 | 18.57272 | 7597 ft | 123 kts | 179° |
| 2026-04-25 16:45 | 50.21523 | 18.57567 | 7286 ft | 118 kts | 180° |
| 2026-04-25 16:45 | 50.20716 | 18.57858 | 7004 ft | 119 kts | 179° |
| 2026-04-25 16:45 | 50.19933 | 18.58147 | 6728 ft | 119 kts | 179° |
| 2026-04-25 16:45 | 50.19108 | 18.58450 | 6439 ft | 119 kts | 179° |
| 2026-04-25 16:46 | 50.18281 | 18.58751 | 6018 ft | 124 kts | 177° |
| 2026-04-25 16:46 | 50.17443 | 18.59061 | 5553 ft | 123 kts | 178° |
| 2026-04-25 16:46 | 50.16612 | 18.59366 | 5084 ft | 122 kts | 177° |
| 2026-04-25 16:46 | 50.16333 | 18.59468 | 4928 ft | 122 kts | 177° |
| 2026-04-25 16:47 | 50.14966 | 18.59965 | 4163 ft | 123 kts | 175° |
| 2026-04-25 16:47 | 50.14134 | 18.60270 | 3688 ft | 123 kts | 174° |
| 2026-04-25 16:47 | 50.13300 | 18.60573 | 3223 ft | 123 kts | 174° |
| 2026-04-25 16:47 | 50.12471 | 18.60876 | 2753 ft | 122 kts | 173° |
| 2026-04-25 16:48 | 50.11647 | 18.61182 | 2279 ft | 121 kts | 174° |
| 2026-04-25 16:48 | 50.10832 | 18.61479 | 1826 ft | 118 kts | 174° |
| 2026-04-25 16:48 | 50.10094 | 18.61745 | 1775 ft | 106 kts | 174° |
| 2026-04-25 16:48 | 50.09343 | 18.62000 | 1804 ft | 112 kts | 175° |
| 2026-04-25 16:49 | 50.08667 | 18.62562 | 1790 ft | 114 kts | 135° |
| 2026-04-25 16:49 | 50.08300 | 18.63670 | 1754 ft | 118 kts | 115° |
| 2026-04-25 16:49 | 50.07946 | 18.64823 | 1725 ft | 117 kts | 118° |
| 2026-04-25 16:49 | 50.07593 | 18.65956 | 1655 ft | 115 kts | 121° |
| 2026-04-25 16:50 | 50.07231 | 18.66444 | 1580 ft | 99 kts | 180° |
| 2026-04-25 16:50 | 50.06444 | 18.66053 | 1523 ft | 87 kts | 239° |
| 2026-04-25 16:50 | 50.06484 | 18.65144 | 1347 ft | 97 kts | 298° |
| 2026-04-25 16:50 | 50.06789 | 18.64303 | 1012 ft | 80 kts | 295° |
| 2026-04-25 16:51 | 50.07006 | 18.63601 | 927 ft | 71 kts | 294° |
| 2026-04-25 16:51 | 50.07152 | 18.62947 | 831 ft | 46 kts | 289° |
| 2026-04-25 16:51 | 50.07189 | 18.62819 | 837 ft | 18 kts | 343° |
| 2026-04-25 16:51 | 50.07234 | 18.62820 | 837 ft | 14 kts | 18° |
| 2026-04-25 16:52 | 50.07228 | 18.63020 | 839 ft | 6 kts | 28° |
| 2026-04-25 16:52 | 50.07232 | 18.63023 | 839 ft | 0 kts | 27° |